Time;durP1;ratioP1;P1;durP2;ratioP2;P2;SDS_P1;SDS_P2;PMS_P1;PMS_P2;Temp;Humidity;BMP_temperature;BMP_pressure;BME280_temperature;BME280_humidity;BME280_pressure;Samples;Min_cycle;Max_cycle;Signal;HPM_P1;HPM_P2
2023/10/11 00:02:56;;;;;;;1642.88;999.90;;;28.10;99.90;;;;;;5055168;28;20052;-68
2023/10/11 00:05:24;;;;;;;1644.03;999.90;;;28.10;99.90;;;;;;5054711;28;20237;-68
2023/10/11 00:07:57;;;;;;;1660.30;999.90;;;28.20;99.90;;;;;;5054630;28;20024;-69
2023/10/11 00:10:24;;;;;;;1605.88;999.90;;;28.20;99.90;;;;;;5053418;28;20024;-68
2023/10/11 00:12:51;;;;;;;1655.00;999.90;;;28.20;99.90;;;;;;5050547;28;20507;-66
2023/10/11 00:15:18;;;;;;;1673.57;999.90;;;28.20;99.90;;;;;;5054631;28;20393;-66
2023/10/11 00:17:46;;;;;;;1664.53;999.90;;;28.20;99.90;;;;;;5054372;28;20013;-66
2023/10/11 00:23:00;;;;;;;1677.38;999.90;;;28.30;99.90;;;;;;5054160;28;20064;-66
2023/10/11 00:25:27;;;;;;;1658.55;999.90;;;28.40;99.90;;;;;;5054399;28;20021;-66
2023/10/11 00:27:58;;;;;;;1653.57;999.90;;;28.40;99.90;;;;;;5054320;28;20433;-67
2023/10/11 00:30:29;;;;;;;1657.80;999.90;;;28.40;99.90;;;;;;5054211;28;20043;-66
2023/10/11 00:32:56;;;;;;;1668.25;999.90;;;28.40;99.90;;;;;;5054146;28;20025;-66
2023/10/11 00:35:25;;;;;;;1459.20;999.90;;;28.40;99.90;;;;;;5054097;28;20532;-67
2023/10/11 00:37:53;;;;;;;1663.60;999.90;;;28.50;99.90;;;;;;5053981;28;20036;-67
2023/10/11 00:40:33;;;;;;;1667.57;999.90;;;28.50;99.90;;;;;;5053864;28;20086;-67
2023/10/11 00:42:59;;;;;;;1668.78;999.90;;;28.50;99.90;;;;;;5053800;28;20060;-67
2023/10/11 00:45:30;;;;;;;1670.10;999.90;;;28.60;99.90;;;;;;5054088;28;20063;-66
2023/10/11 00:48:00;;;;;;;1664.88;999.90;;;28.60;99.90;;;;;;5053860;28;20028;-66
2023/10/11 00:50:30;;;;;;;1667.80;999.90;;;28.60;99.90;;;;;;5053545;28;20037;-66
2023/10/11 00:53:00;;;;;;;1653.63;999.90;;;28.60;99.90;;;;;;5053709;28;20032;-66
2023/10/11 00:55:29;;;;;;;1673.93;999.90;;;28.70;99.90;;;;;;5053674;28;20102;-66
2023/10/11 00:57:57;;;;;;;1655.90;999.90;;;28.70;99.90;;;;;;5051034;28;20021;-66
2023/10/11 01:00:25;;;;;;;1683.00;999.90;;;28.70;99.90;;;;;;5024754;28;20032;-66
2023/10/11 01:02:53;;;;;;;1680.25;999.90;;;28.70;99.90;;;;;;5013984;28;20030;-67
2023/10/11 01:05:20;;;;;;;1678.70;999.90;;;28.70;99.90;;;;;;5013785;28;20106;-64
2023/10/11 01:07:50;;;;;;;1671.30;999.90;;;28.80;99.90;;;;;;5013922;28;20387;-66
2023/10/11 01:10:22;;;;;;;1694.50;999.90;;;28.90;99.90;;;;;;5013931;28;20391;-66
2023/10/11 01:12:49;;;;;;;1681.25;999.90;;;28.90;99.90;;;;;;5013524;28;20474;-66
2023/10/11 01:15:19;;;;;;;1713.20;999.90;;;28.90;99.90;;;;;;5013895;28;20060;-66
2023/10/11 01:17:46;;;;;;;1703.38;999.90;;;28.90;99.90;;;;;;5013616;28;20030;-66
2023/10/11 01:20:13;;;;;;;1673.65;999.90;;;29.00;99.90;;;;;;5014105;28;20029;-66
2023/10/11 01:22:42;;;;;;;1683.63;999.90;;;29.10;99.90;;;;;;5013703;28;20443;-66
2023/10/11 01:25:12;;;;;;;1659.38;999.90;;;29.10;99.90;;;;;;5013702;28;20049;-66
2023/10/11 01:27:40;;;;;;;1644.22;999.90;;;29.30;99.90;;;;;;5013984;28;20029;-67
2023/10/11 01:30:09;;;;;;;1624.88;999.90;;;29.40;99.90;;;;;;5013595;28;20037;-67
2023/10/11 01:32:41;;;;;;;1627.00;999.90;;;29.50;99.90;;;;;;5013472;28;20571;-67
2023/10/11 01:35:18;;;;;;;1635.68;999.90;;;29.60;99.90;;;;;;5013512;28;20095;-67
2023/10/11 01:37:46;;;;;;;1605.68;999.90;;;29.70;99.90;;;;;;5017630;28;20033;-67
2023/10/11 01:40:20;;;;;;;1619.07;999.90;;;29.90;99.90;;;;;;5014442;28;20108;-68
2023/10/11 01:42:49;;;;;;;1616.93;999.90;;;30.00;99.90;;;;;;5023788;28;20457;-68
2023/10/11 01:45:19;;;;;;;1620.22;999.90;;;30.00;99.90;;;;;;5032915;28;20038;-67
2023/10/11 01:47:47;;;;;;;1624.93;999.90;;;30.00;99.90;;;;;;5033478;28;20072;-66
2023/10/11 01:50:15;;;;;;;1627.95;999.90;;;30.10;99.90;;;;;;5033192;28;20042;-68
2023/10/11 01:52:47;;;;;;;1639.20;999.90;;;30.30;99.90;;;;;;5033323;28;20033;-64
2023/10/11 01:55:16;;;;;;;1437.57;999.90;;;30.30;99.90;;;;;;5033220;28;20044;-65
2023/10/11 01:57:45;;;;;;;1648.53;999.90;;;30.30;99.90;;;;;;5033145;28;20074;-66
2023/10/11 02:00:14;;;;;;;1646.20;999.90;;;30.30;99.90;;;;;;5033009;28;20071;-64
2023/10/11 02:02:56;;;;;;;1628.28;999.90;;;30.40;99.90;;;;;;5033252;28;20032;-65
2023/10/11 02:05:24;;;;;;;1615.88;999.90;;;30.40;99.90;;;;;;5033317;28;20079;-64
2023/10/11 02:07:51;;;;;;;1515.25;999.90;;;30.40;99.90;;;;;;5033378;28;20108;-67
2023/10/11 02:10:26;;;;;;;1502.13;999.90;;;30.50;99.90;;;;;;5032929;28;20124;-67
2023/10/11 02:12:56;;;;;;;1484.80;999.90;;;30.60;99.90;;;;;;5024312;28;20033;-66
2023/10/11 02:15:34;;;;;;;1466.22;999.90;;;30.70;99.90;;;;;;5013338;28;20088;-66
2023/10/11 02:18:08;;;;;;;1445.50;999.90;;;30.70;99.90;;;;;;5013304;28;20076;-67
2023/10/11 02:20:43;;;;;;;1420.03;999.90;;;30.80;99.90;;;;;;5013667;28;20037;-67
2023/10/11 02:23:11;;;;;;;1429.68;999.90;;;30.90;99.90;;;;;;5015343;28;20022;-67
2023/10/11 02:25:41;;;;;;;1434.05;999.90;;;30.90;99.90;;;;;;5019801;28;20022;-68
2023/10/11 02:28:09;;;;;;;1335.38;999.90;;;30.90;99.90;;;;;;5025574;28;20404;-67
2023/10/11 02:30:38;;;;;;;1352.97;999.90;;;30.90;99.90;;;;;;5016741;28;20033;-67
2023/10/11 02:33:07;;;;;;;1429.45;999.90;;;30.90;99.90;;;;;;5016785;28;20033;-67
2023/10/11 02:35:48;;;;;;;1408.93;999.90;;;30.90;99.90;;;;;;5016591;28;20360;-66
2023/10/11 02:38:21;;;;;;;1423.65;999.90;;;30.90;99.90;;;;;;5016893;28;20029;-67
2023/10/11 02:40:55;;;;;;;;;;;30.90;99.90;;;;;;5017091;28;20030;-67
2023/10/11 02:43:25;;;;;;;1452.68;999.90;;;31.00;99.90;;;;;;5017141;28;19906;-67
2023/10/11 02:45:53;;;;;;;1363.63;999.90;;;31.00;99.90;;;;;;5016730;28;20053;-67
2023/10/11 02:48:20;;;;;;;1437.45;999.90;;;31.10;99.90;;;;;;5016622;28;20037;-65
2023/10/11 02:50:49;;;;;;;1443.93;999.90;;;31.10;99.90;;;;;;5016373;28;20096;-66
2023/10/11 02:53:25;;;;;;;1374.32;999.90;;;31.20;99.90;;;;;;5016335;28;20037;-67
2023/10/11 02:55:57;;;;;;;1369.07;999.90;;;31.20;99.90;;;;;;5016774;28;20018;-66
2023/10/11 02:58:26;;;;;;;1372.95;999.90;;;31.20;99.90;;;;;;5016549;28;20494;-66
2023/10/11 03:00:57;;;;;;;1367.65;999.90;;;31.30;99.90;;;;;;5016287;28;20383;-67
2023/10/11 03:03:26;;;;;;;1366.53;999.90;;;31.30;99.90;;;;;;5016249;28;20042;-66
2023/10/11 03:05:55;;;;;;;1368.43;999.90;;;31.30;99.90;;;;;;5030057;28;20041;-67
2023/10/11 03:08:26;;;;;;;1366.85;999.90;;;31.40;99.90;;;;;;5035228;28;20022;-66
2023/10/11 03:10:53;;;;;;;1350.63;999.90;;;31.40;99.90;;;;;;5035229;28;20017;-67
2023/10/11 03:13:24;;;;;;;1347.68;999.90;;;31.50;99.90;;;;;;5035371;28;20036;-68
2023/10/11 03:15:55;;;;;;;1359.73;999.90;;;31.60;99.90;;;;;;5035204;28;20026;-66
2023/10/11 03:18:25;;;;;;;1360.10;999.90;;;31.70;99.90;;;;;;5035288;28;20306;-66
2023/10/11 03:21:16;;;;;;;1344.57;999.90;;;31.80;99.90;;;;;;5033689;28;20471;-66
2023/10/11 03:23:49;;;;;;;1351.22;999.90;;;31.80;99.90;;;;;;5033592;28;20057;-66
2023/10/11 03:26:22;;;;;;;1335.68;999.90;;;31.80;99.90;;;;;;5017458;28;20405;-67
2023/10/11 03:28:57;;;;;;;1339.93;999.90;;;31.90;99.90;;;;;;5033712;28;20025;-66
2023/10/11 03:31:28;;;;;;;1355.10;999.90;;;31.90;99.90;;;;;;5032820;28;20478;-67
2023/10/11 03:33:57;;;;;;;1341.28;999.90;;;31.90;99.90;;;;;;5034245;28;20021;-67
2023/10/11 03:36:34;;;;;;;1360.28;999.90;;;31.90;99.90;;;;;;5035037;28;20089;-67
2023/10/11 03:39:11;;;;;;;1340.63;999.90;;;32.00;99.90;;;;;;5032828;28;20097;-68
2023/10/11 03:41:45;;;;;;;1335.72;999.90;;;32.00;99.90;;;;;;5032787;28;20076;-67
2023/10/11 03:44:17;;;;;;;1353.53;999.90;;;32.10;99.90;;;;;;5034949;28;20033;-66
2023/10/11 03:46:47;;;;;;;1342.28;999.90;;;32.20;99.90;;;;;;5035293;28;20022;-66
2023/10/11 03:51:46;;;;;;;1344.97;999.90;;;32.40;99.90;;;;;;5034717;28;20025;-67
2023/10/11 03:54:22;;;;;;;1408.05;999.90;;;32.40;99.90;;;;;;5028777;28;20045;-66
2023/10/11 03:56:54;;;;;;;1446.53;999.90;;;32.40;99.90;;;;;;5016838;28;20026;-66
2023/10/11 03:59:20;;;;;;;;;;;32.50;99.90;;;;;;5015228;28;20049;-66
2023/10/11 04:01:49;;;;;;;1360.65;999.90;;;32.60;99.90;;;;;;5014972;28;20263;-67
2023/10/11 04:04:17;;;;;;;1372.55;999.90;;;32.70;99.90;;;;;;5020732;28;20174;-67
2023/10/11 04:06:50;;;;;;;1357.97;999.90;;;32.80;99.90;;;;;;5034876;28;20033;-67
2023/10/11 04:11:55;;;;;;;1361.63;999.90;;;32.90;99.90;;;;;;5034623;28;20025;-65
2023/10/11 04:14:24;;;;;;;1371.03;999.90;;;32.90;99.90;;;;;;5034768;28;20112;-65
2023/10/11 04:16:55;;;;;;;1363.05;999.90;;;32.90;99.90;;;;;;5034855;28;20021;-66
2023/10/11 04:19:22;;;;;;;1378.13;999.90;;;33.00;99.90;;;;;;5034593;28;20039;-66
2023/10/11 04:24:19;;;;;;;1384.32;999.90;;;33.00;99.90;;;;;;5034142;28;20084;-67
2023/10/11 04:29:23;;;;;;;1388.53;999.90;;;33.00;99.90;;;;;;5030603;28;20060;-66
2023/10/11 04:34:38;;;;;;;1366.78;999.90;;;33.00;99.90;;;;;;5031997;28;20032;-67
2023/10/11 04:37:07;;;;;;;1377.40;999.90;;;33.00;99.90;;;;;;5031404;28;20114;-66
2023/10/11 04:39:34;;;;;;;1384.68;999.90;;;33.20;99.90;;;;;;5032889;28;20098;-65
2023/10/11 04:42:02;;;;;;;1387.57;999.90;;;33.40;99.90;;;;;;5033283;28;20538;-69
2023/10/11 04:44:35;;;;;;;1388.40;999.90;;;33.40;99.90;;;;;;5033210;28;20037;-66
2023/10/11 04:47:02;;;;;;;1387.30;999.90;;;33.40;99.90;;;;;;5031582;28;20033;-64
2023/10/11 04:49:30;;;;;;;1422.80;999.90;;;33.40;99.90;;;;;;5032285;28;20041;-64
2023/10/11 04:51:59;;;;;;;1579.95;999.90;;;33.30;99.90;;;;;;5032619;28;20481;-69
2023/10/11 04:54:36;;;;;;;1580.70;999.90;;;33.40;99.90;;;;;;5032355;28;20021;-69
2023/10/11 04:59:54;;;;;;;1530.65;999.90;;;33.40;99.90;;;;;;5031643;28;20027;-70
2023/10/11 05:02:32;;;;;;;1590.50;999.90;;;33.40;99.90;;;;;;5030291;28;20029;-68
2023/10/11 05:05:01;;;;;;;1538.25;999.90;;;33.40;99.90;;;;;;5030330;28;20039;-68
2023/10/11 05:07:28;;;;;;;1567.47;999.90;;;33.50;99.90;;;;;;5032501;28;20057;-68
2023/10/11 05:09:59;;;;;;;1594.10;999.90;;;33.50;99.90;;;;;;5033027;28;20091;-67
2023/10/11 05:12:26;;;;;;;1556.20;999.90;;;33.60;99.20;;;;;;5032790;28;20079;-67
2023/10/11 05:20:22;;;;;;;1577.93;999.90;;;33.80;98.80;;;;;;5032664;28;20017;-65
2023/10/11 05:27:47;;;;;;;1570.40;999.90;;;33.90;97.40;;;;;;5029941;28;20024;-68
2023/10/11 05:30:28;;;;;;;1578.68;999.90;;;33.90;97.90;;;;;;5032123;28;20386;-66
2023/10/11 05:52:07;;;;;;;963.80;869.50;;;34.50;94.20;;;;;;5031649;28;20018;-67
2023/10/11 05:54:35;;;;;;;940.83;849.47;;;34.50;93.90;;;;;;5030520;28;20079;-67
2023/10/11 05:57:05;;;;;;;920.35;831.38;;;34.40;94.60;;;;;;5030931;28;20026;-66
2023/10/11 05:59:42;;;;;;;922.50;833.28;;;34.50;93.10;;;;;;5035034;28;20049;-68
2023/10/11 06:02:19;;;;;;;905.90;818.55;;;34.50;94.20;;;;;;5033354;28;20040;-67
2023/10/11 06:04:46;;;;;;;884.80;799.20;;;34.60;93.70;;;;;;5032772;28;20048;-67
2023/10/11 06:07:15;;;;;;;857.25;775.15;;;34.70;92.60;;;;;;5033983;28;20079;-67
2023/10/11 06:09:46;;;;;;;858.13;775.92;;;34.70;91.60;;;;;;5034748;28;20030;-67
2023/10/11 06:12:22;;;;;;;882.60;797.90;;;34.70;92.60;;;;;;5034559;28;20022;-67
2023/10/11 06:14:55;;;;;;;907.58;819.88;;;34.90;92.80;;;;;;5015767;28;20044;-68
2023/10/11 06:23:02;;;;;;;931.95;841.78;;;35.00;90.00;;;;;;4973790;28;20041;-64
2023/10/11 06:28:15;;;;;;;974.15;878.92;;;35.10;91.30;;;;;;4982165;28;19997;-65
2023/10/11 06:30:46;;;;;;;940.85;849.65;;;35.10;90.40;;;;;;4986920;28;20089;-64
2023/10/11 06:33:13;;;;;;;930.58;841.05;;;35.00;90.20;;;;;;4993748;28;20030;-65
2023/10/11 06:35:49;;;;;;;899.45;812.92;;;35.00;90.10;;;;;;4994090;28;20031;-65
2023/10/11 06:38:16;;;;;;;875.15;791.20;;;34.90;90.70;;;;;;4994464;28;20088;-65
2023/10/11 06:41:34;;;;;;;870.08;786.30;;;34.90;90.90;;;;;;4994419;28;20516;-65
2023/10/11 06:43:33;;;;;;;861.17;778.15;;;35.00;91.10;;;;;;4991960;28;20038;-65
2023/10/11 06:46:01;;;;;;;844.73;763.53;;;35.10;91.40;;;;;;4993482;28;20457;-65
2023/10/11 06:48:29;;;;;;;805.13;727.60;;;35.20;90.70;;;;;;4993397;28;20038;-65
2023/10/11 06:50:56;;;;;;;795.78;719.15;;;35.30;90.70;;;;;;5016308;28;20498;-65
2023/10/11 06:53:22;;;;;;;800.00;723.28;;;35.30;89.70;;;;;;5035922;28;20099;-65
2023/10/11 06:55:50;;;;;;;784.40;708.90;;;35.40;90.60;;;;;;5036177;28;20017;-65
2023/10/11 06:58:19;;;;;;;776.08;701.60;;;35.40;90.40;;;;;;5036103;28;20033;-65
2023/10/11 07:00:45;;;;;;;773.95;699.33;;;35.50;86.50;;;;;;5035259;28;20033;-65
2023/10/11 07:06:10;;;;;;;810.95;733.30;;;35.40;86.10;;;;;;5034745;28;20080;-66
2023/10/11 07:08:48;;;;;;;759.20;685.95;;;35.50;87.30;;;;;;5033470;28;20091;-66
2023/10/11 07:11:50;;;;;;;749.83;678.03;;;35.50;88.50;;;;;;5034669;28;20036;-65
2023/10/11 07:14:25;;;;;;;731.47;661.08;;;35.60;89.60;;;;;;5034269;28;20383;-65
2023/10/11 07:16:53;;;;;;;737.38;666.60;;;35.60;89.90;;;;;;5035800;28;20470;-66
2023/10/11 07:19:20;;;;;;;734.35;663.25;;;35.60;90.00;;;;;;5035705;28;20501;-66
2023/10/11 07:27:15;;;;;;;599.70;539.78;;;35.50;87.30;;;;;;5035476;28;20033;-66
2023/10/11 07:29:44;;;;;;;623.05;561.75;;;35.40;86.90;;;;;;5035322;28;20091;-66
2023/10/11 07:32:11;;;;;;;671.70;606.58;;;35.40;87.80;;;;;;5035397;28;20060;-65
2023/10/11 07:34:41;;;;;;;607.10;546.35;;;35.50;89.00;;;;;;5028798;28;20029;-65
2023/10/11 07:37:11;;;;;;;574.35;516.15;;;35.50;87.70;;;;;;5023295;28;20534;-64
2023/10/11 07:39:40;;;;;;;598.30;538.42;;;35.50;88.10;;;;;;5024291;28;20068;-64
2023/10/11 07:42:07;;;;;;;610.42;549.33;;;35.60;88.50;;;;;;5035107;28;20030;-64
2023/10/11 07:44:38;;;;;;;613.72;553.03;;;35.60;88.40;;;;;;5034903;28;20040;-64
2023/10/11 07:47:14;;;;;;;637.50;574.50;;;35.60;87.80;;;;;;5035167;28;20371;-64
2023/10/11 07:49:43;;;;;;;637.72;574.72;;;35.60;86.20;;;;;;5034917;28;20516;-65
2023/10/11 07:52:13;;;;;;;630.80;567.97;;;35.60;87.60;;;;;;5035061;28;20072;-64
2023/10/11 07:54:40;;;;;;;633.53;570.97;;;35.60;86.20;;;;;;5034784;28;20037;-66
2023/10/11 07:57:13;;;;;;;632.75;570.20;;;35.60;86.70;;;;;;5034542;28;20033;-64
2023/10/11 07:59:40;;;;;;;668.05;601.75;;;35.70;86.80;;;;;;5035047;28;20065;-64
2023/10/11 08:02:08;;;;;;;634.75;572.20;;;35.70;84.70;;;;;;5034923;28;20101;-64
2023/10/11 08:04:47;;;;;;;640.17;576.83;;;35.50;84.40;;;;;;5034966;28;20364;-66
2023/10/11 08:07:16;;;;;;;623.65;561.95;;;35.40;85.70;;;;;;5034634;28;20040;-65
2023/10/11 08:09:45;;;;;;;544.78;489.50;;;35.50;86.10;;;;;;5034801;28;20033;-65
2023/10/11 08:12:14;;;;;;;544.40;489.10;;;35.50;86.40;;;;;;5034955;28;20036;-66
2023/10/11 08:14:45;;;;;;;540.50;485.33;;;35.50;85.20;;;;;;5034697;28;20386;-66
2023/10/11 08:17:14;;;;;;;564.47;507.50;;;35.50;85.00;;;;;;5034635;28;20026;-66
2023/10/11 08:19:44;;;;;;;569.92;512.17;;;35.50;85.90;;;;;;5034674;28;20471;-66
2023/10/11 08:22:14;;;;;;;635.67;573.03;;;35.50;84.70;;;;;;5034713;28;20033;-67
2023/10/11 08:24:56;;;;;;;686.55;619.65;;;35.60;86.40;;;;;;5034422;28;20446;-67
2023/10/11 08:27:33;;;;;;;726.88;656.50;;;35.60;83.80;;;;;;5030131;28;20430;-69
2023/10/11 08:30:15;;;;;;;682.22;615.75;;;35.50;84.80;;;;;;5023199;28;20096;-65
2023/10/11 08:32:42;;;;;;;640.92;577.88;;;35.60;84.40;;;;;;5014640;28;20037;-69
2023/10/11 08:35:31;;;;;;;598.22;538.65;;;35.50;85.30;;;;;;5014892;28;20486;-69
2023/10/11 08:38:02;;;;;;;607.03;546.22;;;35.60;85.70;;;;;;5014004;28;20029;-66
2023/10/11 08:40:34;;;;;;;583.00;524.50;;;35.60;85.60;;;;;;5014548;28;20479;-65
2023/10/11 08:43:02;;;;;;;585.78;526.90;;;35.60;85.00;;;;;;5014559;28;20391;-66
2023/10/11 08:45:33;;;;;;;609.25;548.08;;;35.60;85.60;;;;;;5014473;28;20388;-65
2023/10/11 08:48:05;;;;;;;603.63;543.57;;;35.60;86.30;;;;;;5014382;28;20036;-66
2023/10/11 08:50:35;;;;;;;597.78;538.55;;;35.70;86.10;;;;;;5014037;28;20054;-65
2023/10/11 08:53:10;;;;;;;626.28;564.33;;;35.70;85.70;;;;;;5014454;28;20077;-65
2023/10/11 08:55:40;;;;;;;690.47;623.20;;;35.70;85.90;;;;;;5014089;28;20052;-66
2023/10/11 09:00:58;;;;;;;672.80;606.85;;;35.70;85.50;;;;;;4934286;29;20046;-66
2023/10/11 09:03:28;;;;;;;653.45;589.42;;;35.70;83.40;;;;;;4934537;29;20077;-65
2023/10/11 09:08:35;;;;;;;613.83;551.97;;;35.50;84.00;;;;;;4934332;29;20489;-65
2023/10/11 09:11:28;;;;;;;610.97;549.92;;;35.50;84.90;;;;;;4934057;29;20039;-64
2023/10/11 09:14:26;;;;;;;572.42;514.67;;;35.50;86.10;;;;;;4933096;29;20481;-64
2023/10/11 09:16:57;;;;;;;590.67;530.60;;;35.50;85.60;;;;;;4932720;29;20172;-65
2023/10/11 09:19:25;;;;;;;573.63;515.73;;;35.50;86.00;;;;;;4934956;29;20023;-65
2023/10/11 09:22:04;;;;;;;588.35;528.72;;;35.60;85.10;;;;;;4934237;29;20258;-64
2023/10/11 09:24:38;;;;;;;598.03;537.83;;;35.50;84.20;;;;;;4934302;29;20045;-63
2023/10/11 09:29:46;;;;;;;676.53;610.22;;;35.40;83.10;;;;;;4934426;29;20038;-64
2023/10/11 09:32:14;;;;;;;;;;;35.40;83.60;;;;;;4933866;29;20024;-66
2023/10/11 09:34:42;;;;;;;673.03;606.75;;;35.30;82.70;;;;;;4933926;29;20284;-66
2023/10/11 09:37:11;;;;;;;657.95;593.45;;;35.30;81.90;;;;;;4933569;29;20028;-70
2023/10/11 09:39:40;;;;;;;650.63;586.75;;;35.20;82.10;;;;;;4933463;29;20481;-67
2023/10/11 09:42:12;;;;;;;646.95;583.03;;;35.20;83.00;;;;;;4934111;29;20689;-67
2023/10/11 09:44:44;;;;;;;825.60;743.55;;;35.20;81.10;;;;;;4934182;29;20028;-65
2023/10/11 09:47:16;;;;;;;732.65;661.05;;;35.20;83.10;;;;;;4933884;29;20449;-62
2023/10/11 09:49:44;;;;;;;776.53;701.25;;;35.20;80.80;;;;;;4936954;28;20048;-64
2023/10/11 09:52:11;;;;;;;900.05;813.05;;;35.20;81.30;;;;;;5014416;28;20022;-64
2023/10/11 09:54:39;;;;;;;818.47;739.50;;;35.20;81.00;;;;;;5027467;28;20467;-68
2023/10/11 09:57:15;;;;;;;708.88;639.28;;;35.10;80.90;;;;;;5033064;28;20033;-66
2023/10/11 10:00:03;;;;;;;652.22;587.53;;;35.10;82.70;;;;;;5032637;28;20100;-66
2023/10/11 10:02:35;;;;;;;695.33;627.70;;;35.10;78.10;;;;;;5030335;28;20056;-65
2023/10/11 10:05:06;;;;;;;833.72;752.88;;;35.00;78.60;;;;;;5031988;28;20079;-67
2023/10/11 10:07:42;;;;;;;640.08;576.28;;;35.00;79.10;;;;;;5030438;28;20030;-66
2023/10/11 10:10:21;;;;;;;586.65;527.25;;;35.00;79.20;;;;;;5032566;28;20032;-66
2023/10/11 10:12:58;;;;;;;629.72;566.08;;;35.00;78.10;;;;;;5032920;28;20032;-65
2023/10/11 10:15:32;;;;;;;601.65;539.72;;;35.00;80.20;;;;;;5030298;28;20025;-69
2023/10/11 10:18:01;;;;;;;609.05;547.30;;;34.90;83.20;;;;;;5030341;28;20017;-65
2023/10/11 10:20:41;;;;;;;600.75;539.88;;;34.90;84.70;;;;;;5032365;28;20410;-65
2023/10/11 10:23:16;;;;;;;597.28;536.38;;;34.90;85.50;;;;;;5029990;28;20471;-70
2023/10/11 10:25:46;;;;;;;640.15;575.45;;;34.90;85.70;;;;;;5029769;28;20036;-65
2023/10/11 10:28:34;;;;;;;629.10;565.20;;;34.80;86.20;;;;;;5032097;28;20570;-69
2023/10/11 10:31:13;;;;;;;624.30;560.42;;;34.80;86.90;;;;;;5032050;28;20029;-66
2023/10/11 10:33:41;;;;;;;626.97;564.17;;;34.80;87.00;;;;;;5032085;28;20017;-65
2023/10/11 10:36:31;;;;;;;651.35;586.13;;;34.70;86.10;;;;;;5032639;28;20087;-70
2023/10/11 10:38:58;;;;;;;738.80;666.50;;;34.70;86.10;;;;;;4949622;29;20047;-67
2023/10/11 10:41:26;;;;;;;908.63;820.05;;;34.70;87.50;;;;;;4951996;28;20039;-67
2023/10/11 10:44:05;;;;;;;867.95;783.50;;;34.70;88.90;;;;;;4953641;28;20031;-69
2023/10/11 10:46:33;;;;;;;863.22;779.20;;;34.70;87.30;;;;;;4951209;29;20068;-67
2023/10/11 10:49:02;;;;;;;842.53;760.55;;;34.70;86.10;;;;;;4955880;29;20409;-68
2023/10/11 10:51:37;;;;;;;790.42;713.03;;;34.70;87.10;;;;;;4953222;29;20045;-65
2023/10/11 10:54:12;;;;;;;792.63;715.70;;;34.60;86.00;;;;;;4955605;29;20019;-66
2023/10/11 10:56:42;;;;;;;732.65;661.33;;;34.60;86.50;;;;;;4955323;29;20063;-66
2023/10/11 10:59:20;;;;;;;739.95;667.63;;;34.60;86.90;;;;;;4953219;29;20034;-67
2023/10/11 11:01:50;;;;;;;687.88;620.17;;;34.50;86.60;;;;;;4952939;29;20031;-67
2023/10/11 11:04:22;;;;;;;679.33;612.20;;;34.50;86.70;;;;;;4954140;29;20063;-67
2023/10/11 11:06:51;;;;;;;632.20;568.70;;;34.40;86.60;;;;;;4951666;29;20091;-67
2023/10/11 11:09:25;;;;;;;646.92;582.33;;;34.40;86.60;;;;;;4953616;29;20035;-64
2023/10/11 11:11:55;;;;;;;670.33;603.97;;;34.40;87.50;;;;;;4951593;29;20027;-64
2023/10/11 11:14:23;;;;;;;659.33;593.53;;;34.30;86.80;;;;;;4953840;29;20512;-65
2023/10/11 11:17:00;;;;;;;666.40;600.30;;;34.30;86.20;;;;;;4951027;29;20420;-64
2023/10/11 11:19:27;;;;;;;681.83;613.95;;;34.30;87.20;;;;;;4953761;29;20031;-64
2023/10/11 11:22:11;;;;;;;675.40;608.08;;;34.30;86.60;;;;;;4953578;29;20031;-66
2023/10/11 11:24:41;;;;;;;687.45;619.30;;;34.20;86.70;;;;;;4953826;29;20019;-64
2023/10/11 11:27:25;;;;;;;716.95;646.28;;;34.20;85.90;;;;;;4953600;29;20149;-66
2023/10/11 11:29:53;;;;;;;750.88;676.83;;;34.10;86.20;;;;;;4951203;29;20042;-66
2023/10/11 11:32:41;;;;;;;769.78;693.78;;;34.00;86.40;;;;;;4954722;29;20380;-66
2023/10/11 11:35:10;;;;;;;755.80;680.78;;;34.00;87.40;;;;;;4989461;28;20037;-65
2023/10/11 11:37:39;;;;;;;801.53;722.65;;;33.90;86.90;;;;;;5031301;28;20041;-66
2023/10/11 11:40:19;;;;;;;740.97;667.35;;;33.90;88.20;;;;;;5028113;28;20296;-64
2023/10/11 11:42:47;;;;;;;741.55;667.50;;;33.90;88.40;;;;;;5032775;28;20483;-65
2023/10/11 11:45:17;;;;;;;716.90;644.88;;;33.80;89.60;;;;;;5030945;28;20375;-65
2023/10/11 11:50:33;;;;;;;793.65;715.30;;;33.70;89.30;;;;;;5033049;28;20034;-65
2023/10/11 11:53:00;;;;;;;799.45;719.90;;;33.70;90.60;;;;;;5033428;28;20025;-63
2023/10/11 11:55:27;;;;;;;779.85;703.05;;;33.70;90.70;;;;;;5032948;28;20036;-64
2023/10/11 11:57:54;;;;;;;771.95;695.65;;;33.60;90.90;;;;;;5030756;28;20040;-64
2023/10/11 12:02:53;;;;;;;694.10;624.20;;;33.60;90.90;;;;;;5033376;28;20501;-64
2023/10/11 12:05:20;;;;;;;722.42;650.08;;;33.60;91.10;;;;;;5033277;28;20043;-66
2023/10/11 12:07:49;;;;;;;643.10;577.75;;;33.50;91.50;;;;;;5033298;28;20021;-63
2023/10/11 12:10:25;;;;;;;598.88;536.53;;;33.40;91.90;;;;;;5014305;28;20386;-62
2023/10/11 12:12:55;;;;;;;590.35;529.05;;;33.40;91.80;;;;;;5014125;28;20037;-62
2023/10/11 12:15:21;;;;;;;585.58;524.50;;;33.40;91.80;;;;;;5014278;28;20550;-66
2023/10/11 12:17:53;;;;;;;664.63;596.30;;;33.40;92.00;;;;;;5014182;28;20022;-63
2023/10/11 12:20:22;;;;;;;707.28;635.35;;;33.30;92.60;;;;;;5015699;28;20469;-65
2023/10/11 12:22:50;;;;;;;644.67;578.03;;;33.30;92.60;;;;;;5032531;28;20124;-67
2023/10/11 12:25:24;;;;;;;649.88;581.97;;;33.20;92.50;;;;;;5032919;28;20036;-66
2023/10/11 12:27:51;;;;;;;669.47;599.38;;;33.20;92.80;;;;;;5031065;28;20034;-67
2023/10/11 12:30:20;;;;;;;646.60;578.35;;;33.20;92.40;;;;;;5029623;28;20072;-65
2023/10/11 12:32:47;;;;;;;622.47;556.42;;;33.00;92.90;;;;;;5031347;28;20060;-69
2023/10/11 12:35:14;;;;;;;649.30;582.10;;;33.00;93.10;;;;;;5030987;28;20509;-67
2023/10/11 12:37:40;;;;;;;639.55;573.28;;;33.00;92.80;;;;;;5030639;28;20363;-67
2023/10/11 12:42:56;;;;;;;628.40;561.15;;;32.80;93.00;;;;;;5030930;28;20029;-68
2023/10/11 12:45:23;;;;;;;626.53;560.17;;;32.70;92.60;;;;;;5030249;28;20021;-67
2023/10/11 12:47:49;;;;;;;654.70;585.33;;;32.60;93.10;;;;;;5027224;28;20026;-69
2023/10/11 12:50:17;;;;;;;651.92;583.80;;;32.60;93.10;;;;;;5032212;28;20041;-68
2023/10/11 12:52:52;;;;;;;623.30;557.90;;;32.60;92.90;;;;;;5032619;28;20090;-64
2023/10/11 12:55:20;;;;;;;663.35;594.05;;;32.50;92.90;;;;;;5030506;28;20040;-66
2023/10/11 12:57:48;;;;;;;645.85;577.92;;;32.50;93.00;;;;;;5030034;28;20036;-64
2023/10/11 13:00:37;;;;;;;635.63;569.13;;;32.50;92.60;;;;;;5033912;28;20385;-63
2023/10/11 13:03:26;;;;;;;612.80;548.88;;;32.40;93.00;;;;;;5031939;28;20557;-63
2023/10/11 13:05:48;;;;;;;624.75;560.63;;;32.40;93.00;;;;;;5028902;28;20044;-64
2023/10/11 13:08:15;;;;;;;582.60;522.10;;;32.30;93.00;;;;;;5031759;28;20021;-63
2023/10/11 13:10:46;;;;;;;590.58;529.97;;;32.30;92.90;;;;;;5031973;28;20103;-64
2023/10/11 13:13:15;;;;;;;605.65;543.30;;;32.40;92.80;;;;;;5030236;28;20486;-63
2023/10/11 13:15:55;;;;;;;635.08;570.10;;;32.30;93.10;;;;;;5033839;28;20017;-63
2023/10/11 13:18:22;;;;;;;613.55;550.92;;;32.20;92.70;;;;;;5031382;28;20018;-63
2023/10/11 13:20:49;;;;;;;625.88;562.38;;;32.20;92.90;;;;;;5033558;28;20025;-65
2023/10/11 13:23:15;;;;;;;612.80;550.83;;;32.20;92.40;;;;;;5033711;28;20029;-61
2023/10/11 13:25:44;;;;;;;636.40;572.00;;;32.10;92.30;;;;;;5027286;28;20037;-64
2023/10/11 13:28:17;;;;;;;642.10;577.30;;;32.00;92.40;;;;;;5022098;28;20481;-62
2023/10/11 13:30:47;;;;;;;640.80;575.58;;;32.00;92.30;;;;;;5013728;28;20042;-62
2023/10/11 13:33:15;;;;;;;637.70;573.53;;;31.90;92.30;;;;;;5033506;28;20032;-61
2023/10/11 13:35:42;;;;;;;626.17;562.47;;;31.90;92.50;;;;;;5033461;28;20037;-62
2023/10/11 13:38:17;;;;;;;604.83;542.70;;;31.90;92.50;;;;;;5029211;28;20117;-62
2023/10/11 13:40:45;;;;;;;617.05;554.22;;;31.90;92.90;;;;;;5013606;28;20034;-62
2023/10/11 13:43:13;;;;;;;654.88;588.90;;;31.90;93.20;;;;;;5024629;28;20064;-61
2023/10/11 13:45:45;;;;;;;629.40;565.75;;;31.90;93.00;;;;;;5013920;28;20463;-62
2023/10/11 13:48:12;;;;;;;615.38;551.65;;;31.80;93.50;;;;;;5031361;28;20079;-62